Time;durP1;ratioP1;P1;durP2;ratioP2;P2;SDS_P1;SDS_P2;PMS_P1;PMS_P2;Temp;Humidity;BMP_temperature;BMP_pressure;BME280_temperature;BME280_humidity;BME280_pressure;Samples;Min_cycle;Max_cycle;Signal;HPM_P1;HPM_P2
2024/02/07 00:02:09;;;;;;;2.60;1.97;;;11.00;99.90;;;-141.84;62.17;18785.59;4999945;28;20242;-54
2024/02/07 00:04:37;;;;;;;4.20;1.80;;;11.00;99.90;;;-141.84;61.88;18771.38;5002777;28;20724;-52
2024/02/07 00:07:06;;;;;;;3.13;1.90;;;11.10;99.90;;;-141.84;62.73;18757.16;5002109;28;20219;-54
2024/02/07 00:09:34;;;;;;;3.20;2.00;;;11.10;99.90;;;-141.84;62.32;18761.22;5006197;28;20219;-53
2024/02/07 00:12:05;;;;;;;3.63;1.97;;;11.10;99.90;;;-141.84;62.55;18773.41;5004894;28;20219;-53
2024/02/07 00:14:33;;;;;;;3.93;2.50;;;11.10;99.90;;;-141.84;62.53;18724.66;4998128;28;20600;-52
2024/02/07 00:17:01;;;;;;;4.67;2.40;;;11.10;99.90;;;-141.84;62.86;18781.53;4997983;28;20203;-55
2024/02/07 00:19:29;;;;;;;3.33;2.00;;;11.00;99.90;;;-141.84;63.00;18749.03;4998737;28;20223;-53
2024/02/07 00:21:58;;;;;;;3.23;1.90;;;11.00;99.90;;;-141.84;62.60;18765.28;5000052;28;20234;-54
2024/02/07 00:24:26;;;;;;;4.40;2.30;;;11.10;99.90;;;-141.84;62.72;18769.34;4995548;28;20234;-54
2024/02/07 00:26:54;;;;;;;5.60;2.50;;;11.10;99.90;;;-141.84;62.50;18765.28;4997474;28;20705;-52
2024/02/07 00:29:24;;;;;;;3.57;2.30;;;11.10;99.90;;;-141.84;62.73;18812.00;5002483;28;20285;-54
2024/02/07 00:31:52;;;;;;;4.87;2.30;;;11.10;99.90;;;-141.84;62.82;18747.00;5003069;28;20570;-51
2024/02/07 00:34:20;;;;;;;5.23;2.77;;;11.10;99.90;;;-141.84;62.58;18781.53;4997373;28;20195;-53
2024/02/07 00:36:48;;;;;;;10.57;2.73;;;11.10;99.90;;;-141.84;62.48;18781.53;5004089;28;20241;-53
2024/02/07 00:39:18;;;;;;;4.93;2.47;;;11.10;99.90;;;-141.84;62.86;18777.47;5003620;28;20756;-51
2024/02/07 00:41:46;;;;;;;6.70;2.73;;;11.10;99.90;;;-141.84;63.12;18763.25;5002362;28;20237;-51
2024/02/07 00:44:14;;;;;;;6.93;2.63;;;11.00;99.90;;;-141.84;62.74;18795.75;4999117;28;20305;-53
2024/02/07 00:46:44;;;;;;;4.93;2.80;;;11.00;99.90;;;-141.84;62.63;18779.50;5001136;28;20314;-54
2024/02/07 00:49:13;;;;;;;7.77;2.93;;;11.00;99.90;;;-141.84;62.41;18757.16;5000558;28;20278;-50
2024/02/07 00:51:41;;;;;;;5.13;2.97;;;11.10;99.90;;;-141.84;62.09;18783.56;4998526;28;20231;-55
2024/02/07 00:54:11;;;;;;;5.57;2.93;;;11.10;99.90;;;-141.84;62.21;18761.22;4999262;28;20227;-53
2024/02/07 00:56:40;;;;;;;4.63;2.73;;;11.00;99.90;;;-141.84;62.35;18773.41;5001037;28;20318;-57
2024/02/07 00:59:08;;;;;;;4.30;2.40;;;11.00;99.90;;;-141.84;62.21;18755.13;4996213;28;20196;-53
2024/02/07 01:01:36;;;;;;;5.83;2.63;;;11.00;99.90;;;-141.84;62.13;18753.09;4999176;28;20281;-55
2024/02/07 01:04:06;;;;;;;4.67;2.40;;;11.00;99.90;;;-141.84;61.81;18789.66;5000736;28;20230;-50
2024/02/07 01:06:34;;;;;;;5.07;3.00;;;11.00;99.90;;;-141.84;61.94;18777.47;5009010;28;20245;-52
2024/02/07 01:09:03;;;;;;;6.77;2.83;;;11.00;99.90;;;-141.84;62.12;18769.34;4998048;28;20223;-54
2024/02/07 01:11:31;;;;;;;6.97;2.77;;;10.90;99.90;;;-141.84;61.55;18755.13;5004614;28;20317;-51
2024/02/07 01:14:00;;;;;;;5.20;2.90;;;11.00;99.90;;;-141.84;61.69;18755.13;5004257;28;20262;-54
2024/02/07 01:16:28;;;;;;;6.30;2.50;;;11.00;99.90;;;-141.84;61.65;18765.28;5005151;28;20221;-55
2024/02/07 01:18:57;;;;;;;4.53;2.37;;;11.00;99.90;;;-141.84;61.65;18781.53;4998169;28;20223;-56
2024/02/07 01:21:27;;;;;;;5.33;2.40;;;11.00;99.90;;;-141.84;61.55;18789.66;4998108;28;20223;-54
2024/02/07 01:23:55;;;;;;;4.83;2.50;;;11.00;99.90;;;-141.84;61.32;18749.03;4999398;28;20235;-55
2024/02/07 01:26:23;;;;;;;5.33;2.83;;;11.00;99.90;;;-141.84;60.92;18749.03;5000249;28;20344;-51
2024/02/07 01:28:51;;;;;;;5.37;2.47;;;11.00;99.90;;;-141.84;61.27;18749.03;4992687;28;20199;-54
2024/02/07 01:31:23;;;;;;;5.47;2.80;;;11.00;99.90;;;-141.84;60.93;18740.91;5000109;28;20203;-55
2024/02/07 01:33:51;;;;;;;4.27;2.60;;;11.00;99.90;;;-141.84;61.15;18773.41;5000176;28;20230;-53
2024/02/07 01:36:22;;;;;;;4.80;2.50;;;11.00;99.90;;;-141.84;60.68;18757.16;4991836;28;20273;-55
2024/02/07 01:38:54;;;;;;;6.57;2.40;;;11.00;99.90;;;-141.84;60.89;18777.47;4992323;28;20314;-54
2024/02/07 01:41:22;;;;;;;5.60;2.40;;;11.00;99.90;;;-141.84;60.42;18775.44;5004378;28;20246;-55
2024/02/07 01:43:51;;;;;;;9.53;2.60;;;11.10;99.90;;;-141.84;60.34;18765.28;5003174;28;20313;-57
2024/02/07 01:46:19;;;;;;;3.93;2.17;;;11.10;99.90;;;-141.84;60.49;18779.50;5002257;28;20199;-55
2024/02/07 01:48:49;;;;;;;5.73;2.73;;;11.10;99.90;;;-141.84;60.66;18767.31;5000996;28;20223;-55
2024/02/07 01:51:19;;;;;;;5.63;2.53;;;11.00;99.90;;;-141.84;60.50;18769.34;5002958;28;20286;-54
2024/02/07 01:53:49;;;;;;;6.57;2.63;;;11.00;99.90;;;-141.84;60.42;18765.28;5003604;28;20643;-56
2024/02/07 01:56:19;;;;;;;6.10;2.70;;;11.00;99.90;;;-141.84;60.30;18779.50;5003837;28;20282;-53
2024/02/07 01:58:48;;;;;;;6.63;2.43;;;11.10;99.90;;;-141.84;60.27;18759.19;4993505;28;20303;-53
2024/02/07 02:01:17;;;;;;;4.27;2.30;;;11.10;99.90;;;-141.84;59.92;18769.34;5000082;28;20270;-54
2024/02/07 02:03:45;;;;;;;3.40;2.67;;;11.10;99.90;;;-141.84;59.97;18765.28;5002148;28;20227;-56
2024/02/07 02:06:14;;;;;;;4.07;2.50;;;11.10;99.90;;;-141.84;59.36;18747.00;5003297;28;20221;-56
2024/02/07 02:08:43;;;;;;;6.80;2.80;;;11.10;99.90;;;-141.84;59.50;18793.72;5001841;28;20313;-54
2024/02/07 02:11:19;;;;;;;5.33;2.47;;;11.10;99.90;;;-141.84;60.16;18734.81;4999780;28;20234;-57
2024/02/07 02:13:51;;;;;;;5.03;2.33;;;11.00;99.90;;;-141.84;59.72;18775.44;4998441;28;20218;-54
2024/02/07 02:16:19;;;;;;;4.40;2.30;;;11.10;99.90;;;-141.84;59.48;18753.09;5003097;28;20242;-49
2024/02/07 02:18:48;;;;;;;4.43;2.20;;;11.20;99.90;;;-141.84;59.78;18767.31;5000980;28;20219;-51
2024/02/07 02:21:26;;;;;;;5.67;2.60;;;11.10;99.90;;;-141.84;59.43;18785.59;5000675;28;20219;-52
2024/02/07 02:24:28;;;;;;;4.97;1.97;;;11.10;99.90;;;-141.84;59.67;18775.44;5002265;28;20253;-52
2024/02/07 02:27:21;;;;;;;5.10;2.33;;;11.10;99.90;;;-141.84;59.94;18759.19;5001880;28;20296;-51
2024/02/07 02:29:55;;;;;;;6.03;2.30;;;11.10;99.90;;;-141.84;59.71;18773.41;5000817;28;20755;-53
2024/02/07 02:32:25;;;;;;;7.37;2.90;;;11.10;99.90;;;-141.84;60.39;18773.41;5000667;28;20258;-55
2024/02/07 02:34:55;;;;;;;3.87;2.13;;;11.00;99.90;;;-141.84;59.47;18773.41;5000429;28;20278;-54
2024/02/07 02:37:25;;;;;;;5.27;2.87;;;11.10;99.90;;;-141.84;60.00;18779.50;5001596;28;20214;-52
2024/02/07 02:39:54;;;;;;;4.37;2.37;;;11.00;99.90;;;-141.84;60.05;18781.53;5002785;28;20253;-55
2024/02/07 02:42:22;;;;;;;6.53;2.73;;;11.00;99.90;;;-141.84;59.68;18785.59;5001562;28;20227;-53
2024/02/07 02:44:52;;;;;;;3.53;2.60;;;11.10;99.90;;;-141.84;60.49;18767.31;5001075;28;20293;-52
2024/02/07 02:47:20;;;;;;;4.90;2.73;;;11.00;99.90;;;-141.84;60.16;18795.75;5003400;28;20306;-51
2024/02/07 02:49:48;;;;;;;4.80;2.60;;;11.00;99.90;;;-141.84;60.35;18761.22;5002696;28;20743;-51
2024/02/07 02:52:17;;;;;;;6.30;2.37;;;11.00;99.90;;;-141.84;60.42;18771.38;5001750;28;20225;-53
2024/02/07 02:54:46;;;;;;;5.23;2.43;;;11.00;99.90;;;-141.84;59.96;18767.31;5000474;28;20273;-55
2024/02/07 02:57:16;;;;;;;4.50;2.60;;;11.10;99.90;;;-141.84;59.56;18759.19;5000024;28;20223;-52
2024/02/07 02:59:48;;;;;;;4.43;2.70;;;11.10;99.90;;;-141.84;59.16;18747.00;5010394;28;20314;-57
2024/02/07 03:02:20;;;;;;;3.00;2.00;;;11.20;99.90;;;-141.84;59.38;18789.66;5002834;28;20603;-52
2024/02/07 03:04:50;;;;;;;3.90;2.37;;;11.20;99.90;;;-141.84;60.09;18775.44;5001823;28;20219;-53
2024/02/07 03:07:53;;;;;;;5.20;2.63;;;11.10;99.90;;;-141.84;60.32;18789.66;5001048;28;20231;-54
2024/02/07 03:10:23;;;;;;;3.57;2.17;;;11.10;99.90;;;-141.84;60.14;18767.31;5000070;28;20233;-53
2024/02/07 03:12:51;;;;;;;4.37;2.13;;;11.10;99.90;;;-141.84;60.63;18789.66;4999267;28;20246;-54
2024/02/07 03:15:20;;;;;;;3.13;2.07;;;11.00;99.90;;;-141.84;60.35;18771.38;4999339;28;20646;-56
2024/02/07 03:17:51;;;;;;;2.67;2.30;;;11.10;99.90;;;-141.84;61.24;18777.47;4999503;28;20255;-54
2024/02/07 03:20:19;;;;;;;4.37;2.13;;;11.00;99.90;;;-141.84;61.19;18767.31;4999321;28;20227;-53
2024/02/07 03:22:48;;;;;;;2.93;2.10;;;11.00;99.90;;;-141.84;61.52;18783.56;5002216;28;20195;-53
2024/02/07 03:25:17;;;;;;;4.30;2.20;;;11.00;99.90;;;-141.84;61.81;18787.63;5002602;28;20242;-54
2024/02/07 03:27:48;;;;;;;3.07;2.13;;;11.00;99.90;;;-141.84;61.85;18771.38;5002066;28;20250;-52
2024/02/07 03:30:21;;;;;;;4.80;2.07;;;11.00;99.90;;;-141.84;62.77;18791.69;4991964;28;20230;-53
2024/02/07 03:32:52;;;;;;;3.97;2.40;;;11.00;99.90;;;-141.84;62.98;18822.19;5006141;28;20708;-51
2024/02/07 03:35:20;;;;;;;5.07;2.37;;;11.00;99.90;;;-141.84;62.74;18783.56;5001824;28;20223;-52
2024/02/07 03:37:49;;;;;;;5.27;2.23;;;11.00;99.90;;;-141.84;62.78;18785.59;5003705;28;20249;-53
2024/02/07 03:40:18;;;;;;;3.40;2.20;;;11.00;99.90;;;-141.84;63.37;18761.22;5001300;28;20253;-54
2024/02/07 03:42:47;;;;;;;3.63;2.10;;;11.00;99.90;;;-141.84;63.23;18779.50;5000717;28;20708;-51
2024/02/07 03:45:16;;;;;;;4.03;2.13;;;11.00;99.90;;;-141.84;63.61;18818.09;5001888;28;20609;-53
2024/02/07 03:47:45;;;;;;;3.73;2.40;;;11.00;99.90;;;-141.84;63.38;18826.25;5001516;28;20284;-49
2024/02/07 03:50:16;;;;;;;5.60;2.13;;;11.00;99.90;;;-141.84;63.57;18791.69;4999162;28;20314;-55
2024/02/07 03:52:48;;;;;;;3.70;1.73;;;11.00;99.90;;;-141.84;63.33;18793.72;4997444;28;20274;-53
2024/02/07 03:55:18;;;;;;;3.30;2.10;;;11.00;99.90;;;-141.84;63.50;18830.31;5000289;28;20219;-55
2024/02/07 03:57:48;;;;;;;2.33;2.00;;;11.10;99.90;;;-141.84;63.22;18840.47;4999022;28;20226;-50
2024/02/07 04:00:17;;;;;;;3.13;2.00;;;11.10;99.90;;;-141.84;62.96;18805.91;4997841;28;20640;-54
2024/02/07 04:02:49;;;;;;;3.33;2.07;;;11.10;99.90;;;-141.84;63.18;18783.56;4999474;28;20227;-54
2024/02/07 04:05:20;;;;;;;2.53;2.27;;;11.20;99.90;;;-141.84;63.00;18797.78;4995846;28;20250;-53
2024/02/07 04:07:48;;;;;;;4.10;2.20;;;11.20;99.90;;;-141.84;64.05;18828.28;5000603;28;20626;-51
2024/02/07 04:10:18;;;;;;;3.60;1.90;;;11.10;99.90;;;-141.84;63.93;18832.34;4993434;28;20219;-56
2024/02/07 05:16:14;;;;;;;1.30;1.10;;;11.10;99.90;;;-141.84;72.12;19242.78;5002046;28;20225;-53
2024/02/07 05:18:41;;;;;;;1.20;1.10;;;10.90;99.90;;;-141.84;75.72;20590.28;5004023;28;20589;-55
2024/02/07 05:21:11;;;;;;;2.97;1.10;;;10.70;99.90;;;-141.84;81.23;38123.53;5003906;28;20700;-55
2024/02/07 05:23:40;;;;;;;1.63;1.10;;;10.10;99.90;;;-141.84;86.89;69916.81;5002603;28;20226;-56
2024/02/07 05:26:10;;;;;;;1.90;1.20;;;9.60;99.90;;;-141.84;93.88;93169.38;5000704;28;20665;-55
2024/02/07 05:28:41;;;;;;;1.33;0.90;;;9.10;99.90;;;-141.84;96.71;101127.16;5001906;28;20184;-55
2024/02/07 05:31:10;;;;;;;1.87;0.70;;;8.70;99.90;;;-141.84;100.00;107770.63;5003165;28;20318;-53
2024/02/07 05:33:41;;;;;;;0.87;0.40;;;8.20;99.90;;;-141.84;100.00;108568.56;5003765;28;20277;-55
2024/02/07 05:36:09;;;;;;;0.83;0.60;;;7.80;99.90;;;-141.84;100.00;113892.16;5003132;28;20227;-53
2024/02/07 05:38:38;;;;;;;0.70;0.50;;;7.50;99.90;;;-141.84;100.00;117089.69;5003755;28;20238;-55
2024/02/07 05:41:06;;;;;;;0.93;0.50;;;7.30;99.90;;;-141.84;100.00;118956.03;5003813;28;20199;-55
2024/02/07 05:43:37;;;;;;;0.60;0.60;;;7.10;99.90;;;-141.84;100.00;119224.81;4995516;28;20673;-51
2024/02/07 05:46:05;;;;;;;0.93;0.60;;;7.00;99.90;;;-141.84;100.00;119224.81;5002750;28;20223;-51
2024/02/07 05:48:33;;;;;;;1.13;0.60;;;6.90;99.90;;;-141.84;100.00;119224.81;5001012;28;20224;-55
2024/02/07 05:51:02;;;;;;;2.10;1.00;;;6.90;99.90;;;-141.84;100.00;119224.81;5002308;28;20231;-53
2024/02/07 05:53:31;;;;;;;0.80;0.80;;;6.80;99.90;;;-141.84;100.00;119224.81;5003782;28;20227;-52
2024/02/07 05:55:59;;;;;;;1.00;0.70;;;6.80;99.90;;;-141.84;100.00;119224.81;5003521;28;20199;-52
2024/02/07 05:58:39;;;;;;;1.50;0.80;;;6.70;99.90;;;-141.84;100.00;119224.81;4993905;28;20191;-50
2024/02/07 06:01:09;;;;;;;1.10;0.67;;;6.60;99.90;;;-141.84;100.00;119224.81;5000961;28;20254;-53
2024/02/07 06:03:38;;;;;;;1.23;0.90;;;6.60;99.90;;;-141.84;100.00;119224.81;5001719;28;20306;-50
2024/02/07 06:06:07;;;;;;;0.70;0.67;;;6.60;99.90;;;-141.84;100.00;119224.81;5007221;28;20246;-54
2024/02/07 06:08:35;;;;;;;1.33;0.70;;;6.60;99.90;;;-141.84;100.00;119224.81;5007343;28;20227;-53
2024/02/07 06:11:05;;;;;;;0.80;0.80;;;6.50;99.90;;;-141.84;100.00;119224.81;5002082;28;20215;-55
2024/02/07 06:13:33;;;;;;;0.90;0.67;;;6.50;99.90;;;-141.84;100.00;119224.81;5003627;28;20804;-56
2024/02/07 06:16:04;;;;;;;0.80;0.80;;;6.50;99.90;;;-141.84;100.00;119224.81;5005744;28;20223;-54
2024/02/07 06:18:32;;;;;;;2.30;1.27;;;6.50;99.90;;;-141.84;100.00;119224.81;4995084;28;20313;-56
2024/02/07 06:21:00;;;;;;;2.00;1.10;;;6.50;99.90;;;-141.84;100.00;119224.81;5000545;28;20705;-54
2024/02/07 06:23:29;;;;;;;2.00;0.70;;;6.50;99.90;;;-141.84;100.00;118422.72;5000348;28;20231;-54
2024/02/07 06:25:57;;;;;;;2.77;1.90;;;6.30;99.90;;;-141.84;100.00;118689.38;5003176;28;20313;-55
2024/02/07 06:28:25;;;;;;;1.03;0.50;;;6.20;99.90;;;-141.84;100.00;117889.44;5003166;28;20238;-53
2024/02/07 06:30:54;;;;;;;0.77;0.60;;;6.00;99.90;;;-141.84;100.00;117089.69;5002061;28;20237;-51
2024/02/07 06:33:23;;;;;;;1.03;0.50;;;5.90;99.90;;;-141.84;100.00;116556.59;5000236;28;20309;-53
2024/02/07 06:35:52;;;;;;;1.87;0.60;;;5.80;99.90;;;-141.84;100.00;115224.16;5000164;28;20635;-53
2024/02/07 06:38:20;;;;;;;0.97;0.50;;;5.80;99.90;;;-141.84;100.00;116556.59;5001692;28;20246;-54
2024/02/07 06:40:48;;;;;;;0.80;0.50;;;5.50;99.90;;;-141.84;100.00;118156.06;5003145;28;20594;-54
2024/02/07 06:43:17;;;;;;;1.77;1.37;;;5.40;99.90;;;-141.84;100.00;118422.72;5009509;28;20221;-56
2024/02/07 06:45:45;;;;;;;3.07;0.97;;;5.30;99.90;;;-141.84;100.00;118422.72;5000707;28;20740;-54
2024/02/07 06:48:13;;;;;;;1.60;0.90;;;5.20;99.90;;;-141.84;100.00;119222.75;4996556;28;20258;-55
2024/02/07 06:50:43;;;;;;;2.10;0.90;;;5.20;99.90;;;-141.84;100.00;119224.81;5002643;28;20268;-56
2024/02/07 06:53:11;;;;;;;1.90;1.00;;;5.20;99.90;;;-141.84;100.00;119224.81;4999789;28;20259;-58
2024/02/07 06:55:41;;;;;;;2.33;1.40;;;5.20;99.90;;;-141.84;100.00;119224.81;5000558;28;20198;-54
2024/02/07 06:58:10;;;;;;;1.90;1.10;;;5.10;99.90;;;-141.84;100.00;119224.81;4999842;28;20318;-53
2024/02/07 07:00:38;;;;;;;2.87;1.20;;;5.10;99.90;;;-141.84;100.00;119224.81;4991965;28;20762;-53
2024/02/07 07:03:06;;;;;;;2.40;1.50;;;5.10;99.90;;;-141.84;100.00;118956.03;4999628;28;20262;-53
2024/02/07 07:05:34;;;;;;;1.53;1.10;;;5.10;99.90;;;-141.84;100.00;117356.25;5000154;28;20234;-54
2024/02/07 07:08:05;;;;;;;1.63;1.00;;;5.00;99.90;;;-141.84;100.00;117889.44;4998451;28;20766;-55
2024/02/07 07:10:35;;;;;;;2.73;0.70;;;4.80;99.90;;;-141.84;100.00;117089.69;4995398;28;20646;-54
2024/02/07 07:13:04;;;;;;;1.40;0.60;;;5.00;99.90;;;-141.84;100.00;117089.69;4999399;28;20284;-55
2024/02/07 07:15:32;;;;;;;1.50;0.60;;;4.90;99.90;;;-141.84;100.00;118422.72;4999676;28;20281;-54
2024/02/07 07:18:01;;;;;;;1.87;0.80;;;4.90;99.90;;;-141.84;100.00;119222.75;5006870;28;20230;-56
2024/02/07 07:20:31;;;;;;;2.23;1.10;;;4.90;99.90;;;-141.84;100.00;119224.81;5000267;28;20229;-54
2024/02/07 07:22:59;;;;;;;2.07;0.80;;;4.90;99.90;;;-141.84;100.00;119222.75;4999786;28;20207;-53
2024/02/07 07:25:44;;;;;;;2.47;0.90;;;4.90;99.90;;;-141.84;100.00;119222.75;5001657;28;20621;-55
2024/02/07 07:28:13;;;;;;;1.60;1.10;;;4.80;99.90;;;-141.84;100.00;116823.13;5001339;28;20650;-55
2024/02/07 07:30:41;;;;;;;4.37;1.03;;;4.90;99.90;;;-141.84;100.00;115490.59;5002280;28;20226;-55
2024/02/07 07:33:09;;;;;;;4.10;1.00;;;4.80;99.90;;;-141.84;100.00;114957.72;4998644;28;20253;-57
2024/02/07 07:35:38;;;;;;;1.53;0.80;;;4.80;99.90;;;-141.84;100.00;117622.84;5003633;28;20308;-56
2024/02/07 07:38:08;;;;;;;2.70;1.30;;;4.70;99.90;;;-141.84;100.00;117889.44;5001694;28;20280;-49
2024/02/07 07:40:39;;;;;;;2.57;0.90;;;4.80;99.90;;;-141.84;100.00;114691.31;4999909;28;20214;-53
2024/02/07 07:43:09;;;;;;;3.00;1.00;;;4.70;99.90;;;-141.84;100.00;112028.13;5001204;28;20221;-54
2024/02/07 07:45:37;;;;;;;2.80;1.00;;;4.80;99.90;;;-141.84;98.84;104580.41;5000266;28;20275;-56
2024/02/07 07:48:07;;;;;;;1.73;0.90;;;4.70;99.90;;;-141.84;98.54;104580.41;4998656;28;20669;-56
2024/02/07 07:50:35;;;;;;;2.50;1.03;;;4.60;99.90;;;-141.84;97.67;101923.81;4998618;28;20641;-55
2024/02/07 07:53:04;;;;;;;1.97;0.80;;;4.60;99.90;;;-141.84;100.00;106972.81;5001515;28;20229;-57
2024/02/07 07:55:32;;;;;;;2.13;0.90;;;4.60;99.90;;;-141.84;100.00;110164.91;5002042;28;20219;-51
2024/02/07 07:58:01;;;;;;;3.03;0.60;;;4.50;99.90;;;-141.84;100.00;110431.03;5001296;28;20226;-55
2024/02/07 08:00:30;;;;;;;2.30;0.70;;;4.50;99.90;;;-141.84;100.00;112028.13;4998513;28;20269;-55
2024/02/07 08:02:59;;;;;;;1.23;0.70;;;4.40;99.90;;;-141.84;100.00;113625.81;4998535;28;20271;-55
2024/02/07 08:05:28;;;;;;;1.43;0.70;;;4.50;99.90;;;-141.84;100.00;109898.81;4998741;28;20224;-55
2024/02/07 08:08:07;;;;;;;1.43;0.70;;;4.40;99.90;;;-141.84;98.57;105377.72;5082538;27;20629;-54
2024/02/07 08:10:35;;;;;;;2.60;0.93;;;4.50;99.90;;;-141.84;98.82;104846.16;5026221;28;20197;-54
2024/02/07 08:13:04;;;;;;;2.77;0.90;;;4.60;99.90;;;-141.84;100.00;109366.66;5025546;28;20257;-55
2024/02/07 08:15:32;;;;;;;3.77;0.97;;;4.50;99.90;;;-141.84;100.00;112560.63;5025916;28;20713;-55
2024/02/07 08:18:02;;;;;;;1.27;0.90;;;4.60;99.90;;;-141.84;100.00;109898.81;5035827;28;20224;-56
2024/02/07 08:20:30;;;;;;;3.07;1.00;;;4.70;99.90;;;-141.84;96.91;102455.00;5045672;28;20273;-55
2024/02/07 08:22:58;;;;;;;2.17;0.90;;;4.60;99.90;;;-141.84;96.56;98738.19;5046128;28;20204;-56
2024/02/07 08:25:29;;;;;;;2.10;0.60;;;4.50;99.90;;;-141.84;100.00;106972.81;5046377;28;20193;-54
2024/02/07 08:27:57;;;;;;;2.43;0.80;;;4.50;99.90;;;-141.84;100.00;108834.56;5011793;28;20236;-54
2024/02/07 08:30:25;;;;;;;3.23;0.93;;;4.50;99.90;;;-141.84;100.00;108302.56;5011113;28;20253;-56
2024/02/07 08:32:55;;;;;;;3.40;1.03;;;4.50;99.90;;;-141.84;100.00;111229.50;5015029;28;20233;-52
2024/02/07 08:35:23;;;;;;;1.30;0.87;;;4.60;99.90;;;-141.84;100.00;111761.88;5022679;28;20352;-54
2024/02/07 08:37:55;;;;;;;1.93;0.70;;;4.50;99.90;;;-141.84;100.00;109632.72;5045612;28;20232;-55
2024/02/07 08:40:23;;;;;;;2.57;0.80;;;4.50;99.90;;;-141.84;100.00;107504.66;5045588;28;20198;-55
2024/02/07 08:42:52;;;;;;;1.90;0.70;;;4.50;99.90;;;-141.84;100.00;108568.56;5045322;28;20216;-55
2024/02/07 08:45:21;;;;;;;2.33;0.80;;;4.50;99.90;;;-141.84;100.00;109898.81;5045078;28;20255;-55
2024/02/07 08:47:50;;;;;;;0.90;0.63;;;4.40;99.90;;;-141.84;100.00;109632.72;5045071;28;20226;-54
2024/02/07 08:50:18;;;;;;;1.20;0.60;;;4.50;99.90;;;-141.84;100.00;108302.56;5045033;28;20560;-53
2024/02/07 08:52:47;;;;;;;1.57;0.80;;;4.40;99.90;;;-141.84;99.00;105643.53;5046106;28;20197;-51
2024/02/07 08:55:15;;;;;;;1.20;0.73;;;4.50;99.90;;;-141.84;98.51;104048.94;5017555;28;20295;-54
2024/02/07 08:57:44;;;;;;;4.93;0.70;;;4.40;99.90;;;-141.84;97.55;102455.00;5025226;28;20225;-52
2024/02/07 09:00:15;;;;;;;1.93;0.90;;;4.40;99.90;;;-141.84;98.30;102720.59;5036484;28;20289;-54
2024/02/07 09:02:49;;;;;;;1.37;0.83;;;4.40;99.90;;;-141.84;99.46;104580.41;5044898;28;20310;-56
2024/02/07 09:05:18;;;;;;;1.50;0.80;;;4.30;99.90;;;-141.84;100.00;108036.56;5044968;28;20273;-54
2024/02/07 09:07:47;;;;;;;2.10;0.70;;;4.40;99.90;;;-141.84;98.99;105111.94;5045416;28;20687;-57
2024/02/07 09:10:16;;;;;;;2.27;0.90;;;4.40;99.90;;;-141.84;97.96;103251.88;5045195;28;20685;-57
2024/02/07 09:12:44;;;;;;;2.00;0.70;;;4.50;99.90;;;-141.84;98.99;103783.25;5044841;28;20597;-52
2024/02/07 09:15:15;;;;;;;2.10;0.70;;;4.30;99.90;;;-141.84;99.04;104846.16;5036462;28;20681;-55
2024/02/07 09:17:43;;;;;;;2.90;0.73;;;4.40;99.90;;;-141.84;100.00;108036.56;5040857;28;20227;-55
2024/02/07 09:20:13;;;;;;;3.70;0.67;;;4.40;99.90;;;-141.84;100.00;108036.56;5031283;28;20294;-56
2024/02/07 09:22:42;;;;;;;2.77;0.77;;;4.40;99.90;;;-141.84;99.30;105377.72;5032123;28;20192;-56
2024/02/07 09:25:10;;;;;;;2.17;0.70;;;4.30;99.90;;;-141.84;99.90;106706.94;5031217;28;20609;-56
2024/02/07 09:27:40;;;;;;;1.80;1.10;;;4.40;99.90;;;-141.84;100.00;107504.66;5030757;28;20782;-56
2024/02/07 09:30:10;;;;;;;1.80;0.90;;;4.40;99.90;;;-141.84;98.97;104846.16;5031300;28;20248;-56
2024/02/07 09:32:43;;;;;;;1.63;1.00;;;4.30;99.90;;;-141.84;100.00;107238.72;5028610;28;20598;-55
2024/02/07 09:35:12;;;;;;;1.33;0.60;;;4.40;99.90;;;-141.84;99.41;105111.94;5023035;28;20275;-54
2024/02/07 09:37:41;;;;;;;1.17;0.80;;;4.40;99.90;;;-141.84;100.00;108834.56;5031429;28;20661;-56
2024/02/07 09:40:11;;;;;;;2.50;0.70;;;4.40;99.90;;;-141.84;99.96;107770.63;5030798;28;20561;-56
2024/02/07 09:42:44;;;;;;;1.00;0.60;;;4.50;99.90;;;-141.84;97.85;103517.56;5030959;28;20220;-56
2024/02/07 09:45:14;;;;;;;1.63;0.70;;;4.50;99.90;;;-141.84;100.00;107238.72;5030907;28;20260;-52
2024/02/07 09:47:59;;;;;;;1.63;0.80;;;4.50;99.90;;;-141.84;100.00;109632.72;5030732;28;20650;-56
2024/02/07 09:50:27;;;;;;;1.63;1.07;;;4.50;99.90;;;-141.84;100.00;109366.66;5030958;28;20231;-54
2024/02/07 09:52:58;;;;;;;1.17;1.00;;;4.60;99.90;;;-141.84;99.95;106972.81;5031184;28;20240;-57
2024/02/07 09:55:28;;;;;;;1.70;1.10;;;4.50;99.90;;;-141.84;100.00;112560.63;5031207;28;20205;-55
2024/02/07 09:57:58;;;;;;;1.60;1.23;;;4.60;99.90;;;-141.84;100.00;112560.63;5030391;28;20406;-54
2024/02/07 10:00:26;;;;;;;2.40;1.00;;;4.60;99.90;;;-141.84;100.00;112560.63;5029465;28;20228;-57
2024/02/07 10:02:57;;;;;;;2.83;1.00;;;4.50;99.90;;;-141.84;100.00;112560.63;5030639;28;20315;-56
2024/02/07 10:05:32;;;;;;;2.13;1.27;;;4.60;99.90;;;-141.84;100.00;111229.50;5030244;28;20298;-55
2024/02/07 10:08:02;;;;;;;1.30;0.80;;;4.50;99.90;;;-141.84;100.00;112560.63;5030718;28;20235;-55
2024/02/07 10:10:32;;;;;;;1.80;0.90;;;4.60;99.90;;;-141.84;100.00;112826.88;5030864;28;20219;-56
2024/02/07 10:13:00;;;;;;;1.83;1.33;;;4.60;99.90;;;-141.84;100.00;113093.19;5030149;28;20252;-56
2024/02/07 10:15:31;;;;;;;1.10;0.80;;;4.60;99.90;;;-141.84;100.00;111229.50;5030489;28;20787;-55
2024/02/07 10:18:03;;;;;;;2.83;1.40;;;4.60;99.90;;;-141.84;100.00;111495.69;5030271;28;20229;-58
2024/02/07 10:20:32;;;;;;;1.50;1.00;;;4.70;99.90;;;-141.84;100.00;112826.88;5030374;28;20225;-55
2024/02/07 10:23:00;;;;;;;1.37;0.90;;;4.70;99.90;;;-141.84;100.00;107770.63;5030322;28;20603;-54
2024/02/07 10:25:28;;;;;;;2.17;0.73;;;4.70;99.90;;;-141.84;98.06;104048.94;5030777;28;20274;-53
2024/02/07 10:28:03;;;;;;;2.87;0.90;;;4.60;99.90;;;-141.84;98.05;102720.59;5029028;28;20236;-54
2024/02/07 10:30:31;;;;;;;2.13;0.90;;;4.60;99.90;;;-141.84;100.00;109366.66;5029347;28;20224;-55
2024/02/07 10:33:01;;;;;;;1.47;0.80;;;4.70;99.90;;;-141.84;100.00;114424.91;5029743;28;20252;-54
2024/02/07 10:35:29;;;;;;;2.63;0.80;;;4.70;99.90;;;-141.84;100.00;115224.16;5030544;28;20324;-56
2024/02/07 10:37:57;;;;;;;2.20;1.00;;;4.80;99.90;;;-141.84;100.00;116023.56;5030096;28;20201;-53
2024/02/07 10:40:29;;;;;;;1.37;0.60;;;4.90;99.90;;;-141.84;100.00;116290.06;5022693;28;20189;-56
2024/02/07 10:42:59;;;;;;;1.10;0.93;;;4.90;99.90;;;-141.84;100.00;112560.63;5029552;28;20647;-54
2024/02/07 10:45:28;;;;;;;2.00;0.80;;;4.90;99.90;;;-141.84;100.00;113093.19;5029805;28;20260;-52
2024/02/07 10:47:56;;;;;;;5.60;3.83;;;5.00;99.90;;;-141.84;100.00;111761.88;5029662;28;20256;-57
2024/02/07 10:50:27;;;;;;;4.80;3.27;;;5.00;99.90;;;-141.84;100.00;112028.13;5029983;28;20233;-56
2024/02/07 10:52:56;;;;;;;4.90;3.30;;;5.00;99.90;;;-141.84;100.00;111229.50;5029221;28;20200;-53
2024/02/07 10:55:24;;;;;;;2.30;1.00;;;5.00;99.90;;;-141.84;100.00;109100.59;5029895;28;20201;-56
2024/02/07 10:57:58;;;;;;;1.37;0.90;;;5.10;99.90;;;-141.84;97.45;104048.94;5029586;28;20279;-53
2024/02/07 11:00:27;;;;;;;2.50;0.70;;;5.20;99.90;;;-141.84;99.35;106706.94;5021809;28;20229;-57
2024/02/07 11:02:56;;;;;;;2.17;1.00;;;5.20;99.90;;;-141.84;96.90;101392.69;5029338;28;20230;-56
2024/02/07 11:05:25;;;;;;;1.00;0.67;;;5.10;99.90;;;-141.84;98.47;104048.94;5029543;28;20229;-54
2024/02/07 11:07:54;;;;;;;2.63;0.90;;;5.10;99.90;;;-141.84;98.16;104314.66;5029051;28;20237;-56
2024/02/07 11:10:24;;;;;;;1.30;0.87;;;5.10;99.90;;;-141.84;100.00;107504.66;5029822;28;20201;-53
2024/02/07 11:12:55;;;;;;;1.47;0.90;;;5.00;99.90;;;-141.84;99.23;105643.53;5029027;28;20235;-55
2024/02/07 11:15:24;;;;;;;1.13;0.90;;;5.10;99.90;;;-141.84;100.00;110963.31;5029238;28;20424;-55
2024/02/07 11:17:52;;;;;;;1.77;0.90;;;5.10;99.90;;;-141.84;100.00;108568.56;5029172;28;20261;-56